This is the latest recevied weather packets stored in our database for station/object IW2GOB-3. If no packets are shown the sender has not sent any weather packets the latest 1 day(s).
| Time | Temp. | Humidity | Pressure | Rain* | Wind** | Luminosity | Snow |
|---|---|---|---|---|---|---|---|
| 1836274408 | 18.89° C | 90% | 1024.1 hPa | 0 mm | 0 m/s | - | - |
| 1836274258 | 18.89° C | 90% | 1024 hPa | 0 mm | 0 m/s | - | - |
| 1778041524 | 13.89° C | 94% | 1009.1 hPa | 4.57 mm | 0.45 m/s, 114° | - | - |
| 1778040924 | 13.89° C | 94% | 1009 hPa | 4.57 mm | 0.89 m/s, 124° | - | - |
| 1778040324 | 13.89° C | 94% | 1008.5 hPa | 3.56 mm | 1.34 m/s, 58° | - | - |
| 1778039724 | 13.89° C | 94% | 1009 hPa | 2.54 mm | 1.34 m/s, 109° | - | - |
| 1778039124 | 13.89° C | 94% | 1009.3 hPa | 1.78 mm | 0.89 m/s, 124° | - | - |
| 1778038524 | 13.89° C | 94% | 1009.2 hPa | 1.52 mm | 1.34 m/s, 138° | - | - |
| 1778037924 | 13.89° C | 94% | 1009.3 hPa | 1.27 mm | 0.89 m/s, 126° | - | - |
| 1778037324 | 13.89° C | 94% | 1009.3 hPa | 1.27 mm | 0.45 m/s, 129° | - | - |
| 1778036724 | 13.89° C | 94% | 1009.4 hPa | 1.27 mm | 0.89 m/s, 101° | - | - |
| 1778036124 | 13.89° C | 94% | 1009.3 hPa | 1.27 mm | 0 m/s | - | - |
| 1778035524 | 13.89° C | 94% | 1009.4 hPa | 1.27 mm | 0.45 m/s, 46° | - | - |
| 1778034924 | 13.89° C | 94% | 1009.5 hPa | 1.02 mm | 0.89 m/s, 26° | - | - |
| 1778034324 | 13.89° C | 94% | 1009.6 hPa | 0.76 mm | 2.68 m/s, 79° | - | - |
| 1778033724 | 13.89° C | 94% | 1009.9 hPa | 0.51 mm | 0.89 m/s, 92° | - | - |
| 1778033124 | 13.89° C | 94% | 1010 hPa | 0.25 mm | 0.45 m/s, 88° | - | - |
| 1778032524 | 13.89° C | 94% | 1009.9 hPa | 0 mm | 0.89 m/s, 77° | - | - |
| 1778031924 | 13.89° C | 94% | 1009.9 hPa | 0 mm | 0.89 m/s, 107° | - | - |
| 1778031324 | 13.89° C | 94% | 1010.2 hPa | 0 mm | 0.45 m/s, 130° | - | - |
| 1778030724 | 13.89° C | 94% | 1010.2 hPa | 0 mm | 1.34 m/s, 121° | - | - |
| 1778030128 | 13.89° C | 94% | 1009.9 hPa | 0 mm | 2.24 m/s, 104° | - | - |
| 1778029524 | 13.89° C | 94% | 1010 hPa | 0 mm | 0.89 m/s, 94° | - | - |
| 1778028924 | 13.89° C | 93% | 1009.9 hPa | 0 mm | 0.89 m/s, 101° | - | - |
| 1778028324 | 13.89° C | 93% | 1009.8 hPa | 0 mm | 1.34 m/s, 66° | - | - |
* Rain latest hour (hover to see other rain measurements)
** Current wind speed in m/s (hover to see current wind gust speed)